createdAt,value
2018-10-02T11:35:28.801Z,11.04
2018-10-02T11:36:28.766Z,11.06
2018-10-02T11:37:28.746Z,10.91
2018-10-02T11:38:28.716Z,10.89
2018-10-02T11:39:28.693Z,10.76
2018-10-02T11:40:28.684Z,10.78
2018-10-02T11:41:28.654Z,11.06
2018-10-02T11:42:28.630Z,11.06
2018-10-02T11:43:28.631Z,10.79
2018-10-02T11:44:28.625Z,10.94
2018-10-02T11:45:28.579Z,10.89
2018-10-02T11:46:28.549Z,10.92
2018-10-02T11:47:28.530Z,10.92
2018-10-02T11:48:28.511Z,10.79
2018-10-02T11:49:28.502Z,10.89
2018-10-02T11:50:28.491Z,10.85
2018-10-02T11:51:28.452Z,10.85
2018-10-02T11:52:28.431Z,10.89
2018-10-02T11:53:28.410Z,10.91
2018-10-02T11:54:28.393Z,10.91
2018-10-02T11:55:28.481Z,10.84
2018-10-02T11:56:28.376Z,10.67
2018-10-02T11:57:28.382Z,10.70
2018-10-02T11:58:28.314Z,10.67
2018-10-02T11:59:28.294Z,10.76
2018-10-02T12:00:28.337Z,10.64
2018-10-02T12:01:28.294Z,10.74
2018-10-02T12:02:28.267Z,10.86
2018-10-02T12:03:28.319Z,10.97
2018-10-02T12:04:28.198Z,10.96
2018-10-02T12:05:28.180Z,10.84
2018-10-02T12:06:28.158Z,10.85
2018-10-02T12:07:28.147Z,10.91
2018-10-02T12:08:28.121Z,10.92
2018-10-02T12:09:28.104Z,10.82
2018-10-02T12:10:28.082Z,10.94
2018-10-02T12:11:28.129Z,10.92
2018-10-02T12:12:28.081Z,11.02
2018-10-02T12:13:28.107Z,11.04
2018-10-02T12:14:28.164Z,11.14
2018-10-02T12:15:27.987Z,11.06
2018-10-02T12:16:27.978Z,11.07
2018-10-02T12:17:27.947Z,10.97
2018-10-02T12:18:27.937Z,10.89
2018-10-02T12:19:28.022Z,11.07
2018-10-02T12:20:27.894Z,11.04
2018-10-02T12:21:27.871Z,11.14
2018-10-02T12:22:27.853Z,11.00
2018-10-02T12:23:27.895Z,11.09
2018-10-02T12:24:27.814Z,10.91
2018-10-02T12:25:27.797Z,11.00
2018-10-02T12:26:27.775Z,11.03
2018-10-02T12:27:27.761Z,10.89
2018-10-02T12:28:27.760Z,10.92
2018-10-02T12:29:27.721Z,11.03
2018-10-02T12:30:27.703Z,11.11
2018-10-02T12:31:27.681Z,11.18
2018-10-02T12:32:27.662Z,11.15
2018-10-02T12:33:27.647Z,10.91
2018-10-02T12:34:27.634Z,10.92
2018-10-02T12:35:27.605Z,10.91
2018-10-02T12:36:27.587Z,10.91
2018-10-02T12:37:27.568Z,10.99
2018-10-02T12:38:27.573Z,10.85
2018-10-02T12:39:27.595Z,10.96
2018-10-02T12:40:27.511Z,10.99
2018-10-02T12:41:27.495Z,10.94
2018-10-02T12:42:27.474Z,10.79
2018-10-02T12:43:27.452Z,10.82
2018-10-02T12:44:27.446Z,10.82
2018-10-02T12:45:27.417Z,10.81
2018-10-02T12:46:27.402Z,10.74
2018-10-02T12:47:27.379Z,10.81
2018-10-02T12:48:27.408Z,10.88
2018-10-02T12:49:27.352Z,10.86
2018-10-02T12:50:27.318Z,10.84
2018-10-02T12:51:27.301Z,10.79
2018-10-02T12:52:27.410Z,10.76
2018-10-02T12:53:27.261Z,10.79
2018-10-02T12:54:27.253Z,10.74
2018-10-02T12:55:27.222Z,10.66
2018-10-02T12:56:27.228Z,10.67
2018-10-02T12:57:27.191Z,10.71
2018-10-02T12:58:27.168Z,10.66
2018-10-02T12:59:27.340Z,10.81
2018-10-02T13:00:27.126Z,10.73
2018-10-02T13:01:27.108Z,10.81
2018-10-02T13:02:27.090Z,10.71
2018-10-02T13:03:27.074Z,10.74
2018-10-02T13:04:27.055Z,10.85
2018-10-02T13:05:27.042Z,10.82
2018-10-02T13:06:27.009Z,10.82
2018-10-02T13:07:26.992Z,10.82
2018-10-02T13:08:26.973Z,10.70
2018-10-02T13:09:26.953Z,10.85
2018-10-02T13:10:26.940Z,10.79
2018-10-02T13:11:26.913Z,10.71
2018-10-02T13:12:26.892Z,10.79
2018-10-02T13:13:26.876Z,10.88
2018-10-02T13:14:26.859Z,10.84
2018-10-02T13:15:26.846Z,10.88
2018-10-02T13:16:26.861Z,10.94
2018-10-02T13:17:26.796Z,10.97
2018-10-02T13:18:26.777Z,11.00
2018-10-02T13:19:26.777Z,11.04
2018-10-02T13:20:26.750Z,11.09
2018-10-02T13:21:26.721Z,10.94
2018-10-02T13:22:26.700Z,10.91
2018-10-02T13:23:26.681Z,10.94
2018-10-02T13:24:26.661Z,10.96
2018-10-02T13:25:26.725Z,10.94
2018-10-02T13:26:26.622Z,10.86
2018-10-02T13:27:26.603Z,11.10
2018-10-02T13:28:26.584Z,11.09
2018-10-02T13:29:26.566Z,11.10
2018-10-02T13:30:26.559Z,11.11
2018-10-02T13:31:26.527Z,11.06
2018-10-02T13:32:26.534Z,11.18
2018-10-02T13:33:26.490Z,11.18
2018-10-02T13:34:26.487Z,11.21
2018-10-02T13:35:26.459Z,11.15
2018-10-02T13:36:26.431Z,11.27
2018-10-02T13:37:26.412Z,11.19
